createdAt,value
2022-12-27T00:00:36.968Z,3.00
2022-12-27T00:03:04.262Z,3.00
2022-12-27T00:05:31.057Z,2.80
2022-12-27T00:07:57.716Z,3.10
2022-12-27T00:10:24.436Z,3.50
2022-12-27T00:12:51.139Z,3.10
2022-12-27T00:15:17.796Z,2.97
2022-12-27T00:17:44.444Z,2.77
2022-12-27T00:20:12.041Z,3.20
2022-12-27T00:22:39.979Z,2.43
2022-12-27T00:25:06.927Z,2.60
2022-12-27T00:27:33.582Z,2.03
2022-12-27T00:30:01.277Z,2.40
2022-12-27T00:32:28.063Z,2.20
2022-12-27T00:34:54.716Z,2.53
2022-12-27T00:37:21.620Z,2.80
2022-12-27T00:39:48.283Z,2.00
2022-12-27T00:42:15.575Z,2.47
2022-12-27T00:44:43.360Z,2.40
2022-12-27T00:47:10.325Z,2.17
2022-12-27T00:49:36.990Z,2.40
2022-12-27T00:52:03.688Z,2.20
2022-12-27T00:54:30.458Z,2.10
2022-12-27T00:56:57.111Z,2.47
2022-12-27T00:59:23.758Z,3.67
2022-12-27T01:01:51.238Z,2.00
2022-12-27T01:04:17.936Z,2.47
2022-12-27T01:06:44.619Z,2.20
2022-12-27T01:09:11.266Z,2.70
2022-12-27T01:11:39.775Z,2.23
2022-12-27T01:14:06.971Z,2.43
2022-12-27T01:16:34.076Z,2.73
2022-12-27T01:19:01.074Z,2.40
2022-12-27T01:21:30.759Z,2.30
2022-12-27T01:23:58.187Z,3.37
2022-12-27T01:26:25.011Z,2.13
2022-12-27T01:28:52.235Z,2.13
2022-12-27T01:31:20.304Z,2.03
2022-12-27T01:33:47.112Z,2.40
2022-12-27T01:36:13.964Z,2.57
2022-12-27T01:38:42.917Z,2.30
2022-12-27T01:41:36.092Z,2.77
2022-12-27T01:44:22.729Z,2.10
2022-12-27T01:46:49.414Z,2.07
2022-12-27T01:49:16.109Z,2.30
2022-12-27T01:51:42.852Z,2.23
2022-12-27T01:54:09.509Z,2.70
2022-12-27T01:56:36.184Z,2.30
2022-12-27T01:59:05.017Z,2.57
2022-12-27T02:01:38.642Z,2.33
2022-12-27T02:04:07.793Z,1.90
2022-12-27T02:06:36.367Z,2.10
2022-12-27T02:09:03.008Z,1.70
2022-12-27T02:11:50.429Z,2.40
2022-12-27T02:14:22.332Z,2.13
2022-12-27T02:16:53.531Z,1.90
2022-12-27T02:19:29.308Z,2.43
2022-12-27T02:22:16.207Z,2.20
2022-12-27T02:25:01.327Z,2.10
2022-12-27T02:27:33.858Z,2.53
2022-12-27T02:30:00.924Z,2.30
2022-12-27T02:32:33.254Z,2.80
2022-12-27T02:35:07.646Z,2.20
2022-12-27T02:37:38.299Z,1.97
2022-12-27T02:40:25.714Z,1.70
2022-12-27T02:43:11.685Z,2.20
2022-12-27T02:46:00.688Z,2.30
2022-12-27T02:48:46.130Z,1.90
2022-12-27T02:51:31.515Z,2.57
2022-12-27T02:54:18.449Z,2.13
2022-12-27T02:57:09.456Z,2.30
2022-12-27T03:00:05.280Z,2.77
2022-12-27T03:02:58.021Z,2.40
2022-12-27T03:05:30.149Z,2.67
2022-12-27T03:08:01.768Z,2.23
2022-12-27T03:10:53.077Z,2.30
2022-12-27T03:13:38.389Z,2.33
2022-12-27T03:16:23.439Z,2.30
2022-12-27T03:19:11.840Z,2.40
2022-12-27T03:22:03.072Z,2.23
2022-12-27T03:24:55.017Z,3.07
2022-12-27T03:27:28.602Z,2.57
2022-12-27T03:30:15.248Z,2.43
2022-12-27T03:33:09.120Z,2.70
2022-12-27T03:35:41.758Z,2.53
2022-12-27T03:38:10.299Z,2.63
2022-12-27T03:41:02.771Z,2.60
2022-12-27T03:43:29.876Z,2.40
2022-12-27T03:46:20.906Z,2.57
2022-12-27T03:48:55.959Z,2.50
2022-12-27T03:51:23.819Z,3.10
2022-12-27T03:53:53.470Z,2.60
2022-12-27T03:56:20.333Z,2.70
2022-12-27T03:58:46.990Z,3.07
2022-12-27T04:01:13.916Z,2.30
2022-12-27T04:03:40.733Z,2.20
2022-12-27T04:06:07.440Z,2.50
2022-12-27T04:08:52.977Z,3.60
2022-12-27T04:11:38.367Z,2.27
2022-12-27T04:14:24.088Z,2.00
2022-12-27T04:17:09.963Z,2.57
2022-12-27T04:19:55.311Z,2.40
2022-12-27T04:22:40.827Z,1.87
2022-12-27T04:25:26.133Z,2.33
2022-12-27T04:28:12.917Z,2.93
2022-12-27T04:30:58.240Z,2.27
2022-12-27T04:33:43.664Z,2.60
2022-12-27T04:36:10.269Z,2.57
2022-12-27T04:38:36.906Z,3.57
2022-12-27T04:41:22.276Z,3.67
2022-12-27T04:44:07.762Z,5.40
2022-12-27T04:47:06.940Z,6.43
2022-12-27T04:49:52.667Z,4.57
2022-12-27T04:52:41.593Z,2.83
2022-12-27T04:55:14.340Z,2.63
2022-12-27T04:57:40.949Z,2.80
2022-12-27T05:00:26.362Z,2.80
2022-12-27T05:02:53.354Z,2.43
2022-12-27T05:05:20.284Z,2.27
2022-12-27T05:08:05.737Z,2.03
2022-12-27T05:10:51.355Z,2.37
2022-12-27T05:13:36.783Z,2.10
2022-12-27T05:16:03.642Z,2.17
2022-12-27T05:18:30.345Z,2.60
2022-12-27T05:21:01.760Z,2.03
2022-12-27T05:23:47.152Z,2.50
2022-12-27T05:26:23.954Z,2.40
2022-12-27T05:28:54.954Z,2.17
2022-12-27T05:31:22.207Z,2.43
2022-12-27T05:33:49.382Z,2.83
2022-12-27T05:36:16.369Z,2.07
2022-12-27T05:38:43.051Z,2.33
2022-12-27T05:41:10.003Z,2.20
2022-12-27T05:43:37.719Z,2.13
2022-12-27T05:46:04.324Z,2.57
2022-12-27T05:48:31.090Z,2.50
2022-12-27T05:50:57.708Z,2.80
2022-12-27T05:53:24.358Z,2.67
2022-12-27T05:55:55.345Z,2.20
2022-12-27T05:58:22.132Z,2.50
2022-12-27T06:00:48.748Z,2.30
2022-12-27T06:03:15.777Z,2.93
2022-12-27T06:05:42.544Z,2.47
2022-12-27T06:08:09.710Z,3.23
2022-12-27T06:10:36.661Z,2.30
2022-12-27T06:13:04.163Z,2.70
2022-12-27T06:15:30.805Z,2.83
2022-12-27T06:17:58.254Z,2.30
2022-12-27T06:20:25.047Z,2.10
2022-12-27T06:22:51.792Z,2.27
2022-12-27T06:25:18.431Z,2.60
2022-12-27T06:27:45.032Z,2.37
2022-12-27T06:30:12.375Z,2.53
2022-12-27T06:32:39.244Z,2.70
2022-12-27T06:35:06.049Z,2.20
2022-12-27T06:37:32.696Z,2.43
2022-12-27T06:39:59.308Z,2.70
2022-12-27T06:42:26.206Z,2.40
2022-12-27T06:44:52.793Z,2.20
2022-12-27T06:47:19.448Z,2.30
2022-12-27T06:49:46.204Z,2.23
2022-12-27T06:52:12.916Z,1.93
2022-12-27T06:54:41.724Z,2.40
2022-12-27T06:57:08.377Z,2.23
2022-12-27T06:59:35.040Z,2.30
2022-12-27T07:02:01.753Z,6.80
2022-12-27T07:04:28.457Z,2.47
2022-12-27T07:06:55.074Z,1.80
2022-12-27T07:09:21.757Z,2.50
2022-12-27T07:11:48.642Z,2.40
2022-12-27T07:14:15.285Z,2.13
2022-12-27T07:16:41.951Z,2.43
2022-12-27T07:19:09.844Z,2.30
2022-12-27T07:21:36.951Z,2.00
2022-12-27T07:24:03.643Z,2.87
2022-12-27T07:26:30.848Z,2.63
2022-12-27T07:28:59.090Z,2.40
2022-12-27T07:31:27.670Z,3.40
2022-12-27T07:33:54.312Z,2.90
2022-12-27T07:36:26.145Z,2.47
2022-12-27T07:38:52.931Z,2.37
2022-12-27T07:41:19.767Z,2.40
2022-12-27T07:43:46.535Z,2.60
2022-12-27T07:46:13.122Z,2.33
2022-12-27T07:48:40.304Z,2.47
2022-12-27T07:51:07.037Z,2.30
2022-12-27T07:53:34.115Z,2.43
2022-12-27T07:56:05.143Z,2.37
2022-12-27T07:58:35.159Z,2.73
2022-12-27T08:01:02.966Z,2.40
2022-12-27T08:03:31.079Z,2.60
2022-12-27T08:05:57.779Z,2.67
2022-12-27T08:08:26.180Z,2.87
2022-12-27T08:10:52.819Z,2.20
2022-12-27T08:13:19.468Z,2.57
2022-12-27T08:15:46.117Z,2.83
2022-12-27T08:18:13.028Z,2.63
2022-12-27T08:20:39.691Z,2.53
2022-12-27T08:23:06.317Z,2.50
2022-12-27T08:25:33.023Z,2.87
2022-12-27T08:28:07.075Z,2.57
2022-12-27T08:30:33.752Z,2.70
2022-12-27T08:33:04.257Z,2.80
2022-12-27T08:38:19.306Z,3.43
2022-12-27T08:40:46.300Z,3.03
2022-12-27T08:43:13.256Z,3.40
2022-12-27T08:45:40.606Z,3.23
2022-12-27T08:48:07.441Z,2.90
2022-12-27T08:50:34.186Z,3.00
2022-12-27T08:53:01.804Z,2.60
2022-12-27T08:55:29.071Z,3.00
2022-12-27T08:58:03.838Z,2.90
2022-12-27T09:00:31.005Z,3.50
2022-12-27T09:02:57.680Z,2.83
2022-12-27T09:05:25.064Z,3.20
2022-12-27T09:07:51.956Z,2.80
2022-12-27T09:10:19.173Z,3.50
2022-12-27T09:12:46.007Z,3.30
2022-12-27T09:15:13.232Z,2.80
2022-12-27T09:17:40.043Z,2.60
2022-12-27T09:20:08.066Z,4.60
2022-12-27T09:22:34.870Z,5.10
2022-12-27T09:25:01.573Z,5.13
2022-12-27T09:27:28.309Z,4.80
2022-12-27T09:29:55.032Z,3.77
2022-12-27T09:32:22.000Z,3.37
2022-12-27T09:34:48.693Z,2.77
2022-12-27T09:37:15.354Z,2.93
2022-12-27T09:39:42.058Z,2.90
2022-12-27T09:42:49.586Z,2.80
2022-12-27T09:45:20.610Z,3.20
2022-12-27T09:47:59.198Z,2.47
2022-12-27T09:50:27.952Z,2.17
2022-12-27T09:53:17.465Z,3.27
2022-12-27T09:55:46.711Z,2.47
2022-12-27T09:58:16.345Z,2.40
2022-12-27T10:00:46.369Z,2.67
2022-12-27T10:03:13.380Z,2.50
2022-12-27T10:05:42.386Z,3.20
2022-12-27T10:08:27.658Z,3.03
2022-12-27T10:10:58.113Z,3.40
2022-12-27T10:13:45.362Z,2.87
2022-12-27T10:16:18.064Z,2.90
2022-12-27T10:18:50.045Z,2.13
2022-12-27T10:21:24.823Z,1.93
2022-12-27T10:23:54.857Z,2.20
2022-12-27T10:26:21.580Z,2.43
2022-12-27T10:29:08.533Z,1.93
2022-12-27T10:31:37.840Z,2.17
2022-12-27T10:34:09.021Z,2.60
2022-12-27T10:36:37.583Z,2.30
2022-12-27T10:39:06.151Z,1.97
2022-12-27T10:41:44.103Z,2.40
2022-12-27T10:44:11.478Z,2.97
2022-12-27T10:46:38.989Z,2.10
2022-12-27T10:49:21.324Z,2.87
2022-12-27T10:51:49.317Z,2.37
2022-12-27T10:54:19.606Z,2.60
2022-12-27T10:56:47.531Z,2.30
2022-12-27T10:59:15.144Z,2.33
2022-12-27T11:01:42.182Z,2.30
2022-12-27T11:04:19.672Z,2.47
2022-12-27T11:06:49.376Z,2.27
2022-12-27T11:09:24.930Z,2.27
2022-12-27T11:11:51.851Z,2.43
2022-12-27T11:14:19.611Z,2.47
2022-12-27T11:16:47.841Z,2.53
2022-12-27T11:19:25.989Z,2.00
2022-12-27T11:21:53.674Z,2.40
2022-12-27T11:24:21.517Z,2.53
2022-12-27T11:26:54.114Z,2.30
2022-12-27T11:29:22.742Z,2.37
2022-12-27T11:31:50.536Z,2.20
2022-12-27T11:34:17.197Z,2.00
2022-12-27T11:36:45.759Z,2.23
2022-12-27T11:39:30.930Z,1.77
2022-12-27T11:41:58.426Z,1.63
2022-12-27T11:44:29.611Z,2.57
2022-12-27T11:46:59.323Z,2.10
2022-12-27T11:49:29.170Z,2.03
2022-12-27T11:52:04.661Z,2.10
2022-12-27T11:54:49.891Z,1.87
2022-12-27T11:57:19.364Z,1.90
2022-12-27T11:59:53.565Z,1.90
2022-12-27T12:02:32.893Z,1.80
2022-12-27T12:04:59.617Z,1.90
2022-12-27T12:07:45.059Z,2.23
2022-12-27T12:10:23.532Z,1.90
2022-12-27T12:13:02.111Z,1.77
2022-12-27T12:16:04.206Z,2.10
2022-12-27T12:18:36.601Z,1.87
2022-12-27T12:21:03.255Z,1.87
2022-12-27T12:24:06.819Z,1.60
2022-12-27T12:26:54.203Z,1.80
2022-12-27T12:29:41.177Z,2.57
2022-12-27T12:32:10.899Z,2.10
2022-12-27T12:34:46.667Z,1.80
2022-12-27T12:37:24.363Z,1.80
2022-12-27T12:40:09.713Z,2.77
2022-12-27T12:42:55.246Z,1.60
2022-12-27T12:45:24.769Z,1.63
2022-12-27T12:47:59.033Z,1.87
2022-12-27T12:50:33.020Z,2.40
2022-12-27T12:53:08.914Z,1.90
2022-12-27T12:55:47.616Z,1.70
2022-12-27T12:58:37.824Z,2.00
2022-12-27T13:01:04.680Z,2.10
2022-12-27T13:03:31.409Z,1.93
2022-12-27T13:06:08.239Z,1.80
2022-12-27T13:08:54.066Z,1.73
2022-12-27T13:11:20.714Z,1.87
2022-12-27T13:14:05.945Z,1.70
2022-12-27T13:16:44.769Z,1.70
2022-12-27T13:19:11.472Z,1.93
2022-12-27T13:21:53.471Z,1.70
2022-12-27T13:24:38.761Z,1.73
2022-12-27T13:27:20.837Z,1.77
2022-12-27T13:29:47.629Z,1.43
2022-12-27T13:32:23.605Z,1.43
2022-12-27T13:35:09.030Z,1.37
2022-12-27T13:37:38.551Z,1.33
2022-12-27T13:40:14.392Z,1.93
2022-12-27T13:42:45.977Z,2.10
2022-12-27T13:45:22.373Z,1.27
2022-12-27T13:48:21.783Z,1.60
2022-12-27T13:51:01.124Z,2.03
2022-12-27T13:53:27.907Z,2.20
2022-12-27T13:55:56.056Z,1.80
2022-12-27T13:58:29.125Z,1.77
2022-12-27T14:01:14.522Z,1.70
2022-12-27T14:03:49.053Z,2.07
2022-12-27T14:06:35.106Z,1.67
2022-12-27T14:09:07.394Z,2.40
2022-12-27T14:11:52.754Z,2.50
2022-12-27T14:14:20.242Z,2.00
2022-12-27T14:16:46.909Z,2.13
2022-12-27T14:19:16.634Z,2.40
2022-12-27T14:21:43.294Z,1.60
2022-12-27T14:24:13.090Z,1.90
2022-12-27T14:26:51.675Z,2.57
2022-12-27T14:29:37.759Z,2.10
2022-12-27T14:32:23.193Z,1.40
2022-12-27T14:34:58.935Z,2.17
2022-12-27T14:37:44.682Z,2.50
2022-12-27T14:40:17.591Z,1.93
2022-12-27T14:42:53.054Z,2.90
2022-12-27T14:45:31.654Z,2.50
2022-12-27T14:47:58.689Z,1.77
2022-12-27T14:50:43.551Z,2.20
2022-12-27T14:53:21.640Z,2.90
2022-12-27T14:55:54.295Z,2.10
2022-12-27T14:58:39.305Z,1.60
2022-12-27T15:01:10.772Z,1.63
2022-12-27T15:03:54.482Z,1.83
2022-12-27T15:06:24.241Z,1.80
2022-12-27T15:08:56.894Z,1.70
2022-12-27T15:11:46.586Z,1.87
2022-12-27T15:14:21.162Z,2.10
2022-12-27T15:16:51.094Z,1.90
2022-12-27T15:19:30.367Z,2.10
2022-12-27T15:22:00.063Z,2.00
2022-12-27T15:24:38.772Z,2.27
2022-12-27T15:27:19.805Z,3.20
2022-12-27T15:30:16.879Z,4.50
2022-12-27T15:32:53.536Z,1.83
2022-12-27T15:35:23.272Z,2.10
2022-12-27T15:37:55.734Z,2.40
2022-12-27T15:40:34.264Z,1.77
2022-12-27T15:43:07.046Z,2.30
2022-12-27T15:45:57.870Z,1.97
2022-12-27T15:48:48.558Z,1.97
2022-12-27T15:51:32.707Z,1.70
2022-12-27T15:54:08.207Z,1.87
2022-12-27T15:56:50.323Z,1.70
2022-12-27T15:59:35.967Z,1.90
2022-12-27T16:02:11.971Z,2.30
2022-12-27T16:04:47.028Z,1.77
2022-12-27T16:07:32.444Z,2.80
2022-12-27T16:09:59.213Z,2.60
2022-12-27T16:12:39.513Z,2.90
2022-12-27T16:15:24.817Z,4.47
2022-12-27T16:17:55.285Z,3.53
2022-12-27T16:20:23.547Z,2.57
2022-12-27T16:22:55.120Z,3.13
2022-12-27T16:25:35.652Z,2.47
2022-12-27T16:28:04.179Z,2.87
2022-12-27T16:30:39.931Z,3.63
2022-12-27T16:33:16.463Z,2.60
2022-12-27T16:35:43.152Z,2.60
2022-12-27T16:38:20.837Z,2.90
2022-12-27T16:40:50.362Z,2.23
2022-12-27T16:43:19.996Z,2.50
2022-12-27T16:45:52.706Z,3.37
2022-12-27T16:48:22.056Z,3.00
2022-12-27T16:51:12.687Z,3.17
2022-12-27T16:53:39.385Z,2.83
2022-12-27T16:56:16.269Z,2.37
2022-12-27T16:58:43.260Z,1.93
2022-12-27T17:01:30.206Z,2.07
2022-12-27T17:03:57.363Z,2.00
2022-12-27T17:06:32.955Z,2.10
2022-12-27T17:09:09.214Z,2.27
2022-12-27T17:11:48.351Z,2.17
2022-12-27T17:14:35.430Z,2.80
2022-12-27T17:17:04.139Z,3.27
2022-12-27T17:19:33.801Z,2.17
2022-12-27T17:22:01.822Z,2.30
2022-12-27T17:24:29.071Z,2.03
2022-12-27T17:27:07.883Z,2.70
2022-12-27T17:29:49.562Z,2.20
2022-12-27T17:32:25.509Z,1.80
2022-12-27T17:35:03.692Z,1.80
2022-12-27T17:37:42.743Z,2.73
2022-12-27T17:40:20.575Z,2.37
2022-12-27T17:43:20.610Z,2.10
2022-12-27T17:45:55.706Z,2.27
2022-12-27T17:48:27.972Z,2.13
2022-12-27T17:50:56.273Z,1.70
2022-12-27T17:53:42.268Z,2.20
2022-12-27T17:56:41.242Z,1.97
2022-12-27T17:59:09.819Z,1.80
2022-12-27T18:01:44.826Z,2.03
2022-12-27T18:04:17.770Z,1.90
2022-12-27T18:06:44.739Z,2.07
2022-12-27T18:09:27.966Z,1.77
2022-12-27T18:11:54.671Z,2.40
2022-12-27T18:14:21.403Z,2.23
2022-12-27T18:16:48.101Z,2.20
2022-12-27T18:19:20.866Z,2.27
2022-12-27T18:21:54.581Z,2.47
2022-12-27T18:24:26.974Z,2.47
2022-12-27T18:27:00.245Z,1.97
2022-12-27T18:29:27.337Z,2.07
2022-12-27T18:31:56.278Z,2.33
2022-12-27T18:34:26.294Z,2.20
2022-12-27T18:37:00.600Z,2.17
2022-12-27T18:39:30.470Z,2.63
2022-12-27T18:41:58.103Z,2.63
2022-12-27T18:44:30.370Z,2.13
2022-12-27T18:46:59.666Z,2.37
2022-12-27T18:49:27.807Z,2.53
2022-12-27T18:51:55.323Z,2.43
2022-12-27T18:54:21.972Z,2.87
2022-12-27T18:56:50.941Z,2.27
2022-12-27T18:59:17.959Z,2.10
2022-12-27T19:01:45.785Z,2.10
2022-12-27T19:04:15.352Z,1.90
2022-12-27T19:06:43.579Z,2.17
2022-12-27T19:09:17.968Z,2.43
2022-12-27T19:11:58.870Z,2.27
2022-12-27T19:14:27.078Z,2.73
2022-12-27T19:16:55.074Z,2.30
2022-12-27T19:19:26.223Z,2.33
2022-12-27T19:21:52.832Z,2.73
2022-12-27T19:24:28.919Z,2.30
2022-12-27T19:26:56.759Z,2.33
2022-12-27T19:29:24.268Z,2.30
2022-12-27T19:31:53.982Z,2.50
2022-12-27T19:34:21.248Z,2.43
2022-12-27T19:36:48.547Z,2.20
2022-12-27T19:39:23.700Z,2.80
2022-12-27T19:41:51.179Z,2.17
2022-12-27T19:44:18.499Z,2.47
2022-12-27T19:46:45.401Z,2.83
2022-12-27T19:51:58.796Z,3.30
2022-12-27T19:54:25.427Z,2.40
2022-12-27T19:56:52.042Z,2.67
2022-12-27T19:59:22.976Z,2.47
2022-12-27T20:01:50.092Z,3.43
2022-12-27T20:04:17.455Z,2.33
2022-12-27T20:06:45.263Z,3.60
2022-12-27T20:09:16.380Z,2.40
2022-12-27T20:11:43.116Z,2.67
2022-12-27T20:14:09.928Z,2.67
2022-12-27T20:16:37.708Z,2.40
2022-12-27T20:19:04.372Z,1.57
2022-12-27T20:21:31.156Z,2.00
2022-12-27T20:23:57.744Z,2.10
2022-12-27T20:26:25.201Z,1.73
2022-12-27T20:28:52.440Z,2.20
2022-12-27T20:31:20.844Z,2.00
2022-12-27T20:33:54.138Z,1.80
2022-12-27T20:36:22.080Z,1.90
2022-12-27T20:38:48.875Z,1.70
2022-12-27T20:41:16.730Z,1.50
2022-12-27T20:43:43.753Z,1.60
2022-12-27T20:46:11.884Z,1.70
2022-12-27T20:48:39.313Z,1.53
2022-12-27T20:51:09.859Z,1.70
2022-12-27T20:53:37.234Z,1.67
2022-12-27T20:56:04.890Z,2.00
2022-12-27T20:58:32.031Z,1.60
2022-12-27T21:01:05.048Z,1.93
2022-12-27T21:03:31.681Z,2.53
2022-12-27T21:05:58.357Z,1.50
2022-12-27T21:08:24.964Z,2.00
2022-12-27T21:10:51.705Z,1.90
2022-12-27T21:13:18.480Z,1.60
2022-12-27T21:15:47.867Z,1.90
2022-12-27T21:18:14.595Z,1.80
2022-12-27T21:20:41.721Z,1.67
2022-12-27T21:23:08.403Z,1.57
2022-12-27T21:25:35.047Z,1.63
2022-12-27T21:28:01.658Z,1.77
2022-12-27T21:30:28.326Z,1.57
2022-12-27T21:32:54.921Z,1.50
2022-12-27T21:35:21.591Z,1.40
2022-12-27T21:37:48.456Z,1.70
2022-12-27T21:40:15.147Z,1.20
2022-12-27T21:42:41.967Z,1.70
2022-12-27T21:45:08.919Z,1.63
2022-12-27T21:47:36.248Z,1.40
2022-12-27T21:50:02.946Z,1.60
2022-12-27T21:52:29.649Z,1.20
2022-12-27T21:54:56.231Z,1.33
2022-12-27T21:57:22.957Z,1.33
2022-12-27T21:59:49.601Z,1.20
2022-12-27T22:02:18.236Z,1.60
2022-12-27T22:04:45.145Z,1.50
2022-12-27T22:07:11.860Z,1.30
2022-12-27T22:09:38.561Z,1.33
2022-12-27T22:12:05.257Z,1.20
2022-12-27T22:14:36.662Z,1.50
2022-12-27T22:17:04.308Z,1.20
2022-12-27T22:19:31.032Z,1.40
2022-12-27T22:21:57.657Z,1.43
2022-12-27T22:24:24.292Z,1.37
2022-12-27T22:26:51.017Z,1.20
2022-12-27T22:29:17.903Z,0.90
2022-12-27T22:31:44.761Z,1.20
2022-12-27T22:34:11.394Z,0.90
2022-12-27T22:36:38.464Z,1.40
2022-12-27T22:39:05.979Z,1.17
2022-12-27T22:41:33.904Z,1.30
2022-12-27T22:44:08.350Z,1.20
2022-12-27T22:49:21.989Z,0.97
2022-12-27T22:51:48.713Z,1.20
2022-12-27T22:54:15.406Z,1.67
2022-12-27T22:56:42.459Z,1.20
2022-12-27T22:59:09.981Z,0.90
2022-12-27T23:01:37.329Z,1.30
2022-12-27T23:04:05.450Z,1.20
2022-12-27T23:06:33.235Z,1.20
2022-12-27T23:09:00.016Z,1.20
2022-12-27T23:11:28.376Z,1.40
2022-12-27T23:13:58.702Z,1.10
2022-12-27T23:16:25.633Z,1.30
2022-12-27T23:18:52.988Z,1.83
2022-12-27T23:21:24.286Z,1.57
2022-12-27T23:23:52.640Z,1.00
2022-12-27T23:26:20.666Z,1.73
2022-12-27T23:28:48.100Z,1.20
2022-12-27T23:31:15.425Z,1.20
2022-12-27T23:33:42.879Z,1.10
2022-12-27T23:36:10.045Z,1.50
2022-12-27T23:38:36.790Z,1.23
2022-12-27T23:41:04.685Z,1.03
2022-12-27T23:43:55.363Z,1.13
2022-12-27T23:46:24.801Z,1.50
2022-12-27T23:48:51.700Z,1.03
2022-12-27T23:51:18.824Z,1.40
2022-12-27T23:53:45.478Z,1.37
2022-12-27T23:56:14.350Z,1.53
2022-12-27T23:58:40.987Z,1.40
